createdAt,value
2023-02-02T01:29:41.040Z,15.05
2023-02-02T01:32:13.535Z,18.60
2023-02-02T01:34:46.719Z,18.42
2023-02-02T01:37:19.001Z,17.10
2023-02-02T01:39:51.349Z,17.70
2023-02-02T01:42:25.402Z,16.73
2023-02-02T01:45:26.747Z,17.42
2023-02-02T01:48:00.767Z,14.45
2023-02-02T01:50:34.554Z,21.55
2023-02-02T01:53:07.288Z,20.60
2023-02-02T01:55:41.770Z,21.95
2023-02-02T01:58:21.925Z,21.70
2023-02-02T02:00:54.376Z,18.82
2023-02-02T02:03:28.833Z,18.25
2023-02-02T02:06:12.963Z,17.32
2023-02-02T02:09:03.632Z,17.02
2023-02-02T02:11:37.564Z,18.77
2023-02-02T02:14:29.693Z,19.15
2023-02-02T02:17:52.545Z,18.77
2023-02-02T02:20:59.704Z,19.62
2023-02-02T02:24:22.035Z,17.17
2023-02-02T02:27:27.523Z,18.85
2023-02-02T02:30:33.252Z,18.77
2023-02-02T02:33:28.422Z,19.65
2023-02-02T02:36:17.439Z,19.50
2023-02-02T02:39:24.816Z,17.85
2023-02-02T02:42:02.007Z,24.67
2023-02-02T02:44:36.012Z,19.80
2023-02-02T02:47:09.181Z,15.70
2023-02-02T02:49:47.051Z,18.57
2023-02-02T02:52:19.436Z,17.55
2023-02-02T02:54:54.998Z,21.37
2023-02-02T02:58:00.744Z,16.55
2023-02-02T03:00:53.312Z,18.95
2023-02-02T03:03:53.350Z,15.72
2023-02-02T03:06:32.398Z,16.52
2023-02-02T03:09:18.679Z,20.32
2023-02-02T03:11:51.468Z,17.67
2023-02-02T03:14:23.989Z,21.62
2023-02-02T03:16:56.926Z,18.32
2023-02-02T03:19:29.295Z,17.40
2023-02-02T03:22:02.187Z,22.05
2023-02-02T03:24:35.307Z,16.27
2023-02-02T03:27:07.852Z,16.12
2023-02-02T03:29:40.702Z,17.95
2023-02-02T03:32:13.524Z,18.82
2023-02-02T03:34:46.354Z,15.63
2023-02-02T03:37:18.804Z,18.27
2023-02-02T03:39:53.795Z,18.73
2023-02-02T03:42:26.293Z,24.77
2023-02-02T03:45:00.136Z,13.18
2023-02-02T03:47:33.455Z,19.75
2023-02-02T03:50:09.842Z,15.08
2023-02-02T03:52:42.922Z,18.10
2023-02-02T03:55:15.720Z,20.23
2023-02-02T03:57:48.198Z,15.13
2023-02-02T04:00:21.847Z,19.00
2023-02-02T04:02:55.260Z,16.55
2023-02-02T04:05:28.231Z,15.40
2023-02-02T04:08:00.925Z,17.05
2023-02-02T04:10:33.793Z,17.15
2023-02-02T04:13:07.264Z,14.63
2023-02-02T04:15:40.389Z,18.92
2023-02-02T04:18:13.384Z,19.85
2023-02-02T04:20:46.733Z,18.75
2023-02-02T04:23:19.491Z,14.87
2023-02-02T04:25:53.092Z,16.07
2023-02-02T04:28:27.310Z,18.92
2023-02-02T04:33:33.263Z,22.02
2023-02-02T04:36:06.860Z,25.15
2023-02-02T04:38:39.326Z,17.62
2023-02-02T04:41:14.974Z,19.62
2023-02-02T04:43:48.120Z,21.62
2023-02-02T04:46:20.854Z,20.85
2023-02-02T04:48:53.325Z,20.40
2023-02-02T04:51:37.862Z,21.68
2023-02-02T04:54:10.264Z,19.37
2023-02-02T04:56:43.622Z,16.50
2023-02-02T04:59:16.025Z,19.17
2023-02-02T05:01:48.562Z,17.60
2023-02-02T05:04:21.215Z,20.72
2023-02-02T05:06:54.106Z,20.55
2023-02-02T05:09:27.123Z,17.80
2023-02-02T05:11:59.456Z,21.42
2023-02-02T05:14:32.008Z,21.12
2023-02-02T05:17:04.569Z,17.52
2023-02-02T05:19:37.269Z,21.00
2023-02-02T05:22:10.173Z,17.62
2023-02-02T05:24:42.836Z,14.47
2023-02-02T05:27:16.575Z,16.85
2023-02-02T05:29:49.831Z,20.73
2023-02-02T05:32:22.387Z,17.87
2023-02-02T05:34:55.922Z,14.35
2023-02-02T05:37:28.407Z,19.80
2023-02-02T05:40:01.061Z,20.40
2023-02-02T05:42:34.177Z,21.27
2023-02-02T05:45:07.951Z,19.55
2023-02-02T05:47:42.118Z,18.92
2023-02-02T05:50:14.575Z,18.62
2023-02-02T05:52:49.432Z,21.65
2023-02-02T05:55:22.572Z,14.85
2023-02-02T05:57:55.993Z,18.12
2023-02-02T06:00:28.672Z,24.27
2023-02-02T06:03:01.208Z,20.57
2023-02-02T06:05:34.344Z,19.17
2023-02-02T06:08:07.734Z,18.17
2023-02-02T06:10:42.381Z,21.02
2023-02-02T06:15:47.299Z,21.55
2023-02-02T06:18:20.401Z,19.15
2023-02-02T06:21:13.774Z,22.75
2023-02-02T06:23:46.909Z,21.17
2023-02-02T06:26:19.623Z,18.80
2023-02-02T06:28:54.299Z,21.68
2023-02-02T06:31:27.011Z,18.27
2023-02-02T06:34:00.182Z,19.50
2023-02-02T06:36:32.899Z,19.23
2023-02-02T06:39:06.843Z,20.08
2023-02-02T06:41:40.797Z,19.55
2023-02-02T06:44:15.478Z,17.27
2023-02-02T06:46:48.617Z,19.55
2023-02-02T06:49:21.056Z,17.77
2023-02-02T06:51:53.489Z,15.98
2023-02-02T06:54:26.103Z,18.82
2023-02-02T06:56:58.630Z,19.12
2023-02-02T06:59:31.139Z,20.45
2023-02-02T07:02:03.618Z,19.57
2023-02-02T07:04:36.449Z,21.23
2023-02-02T07:07:10.626Z,20.45
2023-02-02T07:09:43.193Z,20.72
2023-02-02T07:12:15.764Z,23.45
2023-02-02T07:14:48.822Z,19.20
2023-02-02T07:17:21.558Z,21.25
2023-02-02T07:19:54.051Z,22.55
2023-02-02T07:22:26.657Z,19.30
2023-02-02T10:17:58.767Z,15.45
2023-02-02T10:20:43.758Z,16.25
2023-02-02T10:26:03.551Z,17.62
2023-02-02T10:28:47.373Z,14.80
2023-02-02T10:31:42.030Z,17.12
2023-02-02T10:34:34.367Z,16.45
2023-02-02T10:37:32.657Z,18.90
2023-02-02T10:40:25.145Z,15.30
2023-02-02T10:43:41.295Z,15.20
2023-02-02T10:46:35.222Z,15.10
2023-02-02T10:49:34.285Z,17.27
2023-02-02T10:52:19.205Z,19.87
2023-02-02T10:58:01.120Z,12.63
2023-02-02T11:00:51.440Z,13.88
2023-02-02T11:03:35.745Z,13.48
2023-02-02T11:06:27.311Z,14.40
2023-02-02T11:09:04.071Z,15.70
2023-02-02T11:11:47.043Z,15.00
2023-02-02T11:14:35.158Z,14.35
2023-02-02T11:17:08.171Z,15.70
2023-02-02T11:19:41.347Z,16.42
2023-02-02T11:22:28.304Z,13.32
2023-02-02T11:25:02.558Z,16.93
2023-02-02T11:27:38.546Z,14.78
2023-02-02T11:30:45.070Z,12.98
2023-02-02T11:33:30.344Z,11.83
2023-02-02T11:36:27.498Z,16.17
2023-02-02T11:39:23.011Z,14.35
2023-02-02T11:42:05.365Z,16.23
2023-02-02T11:44:39.644Z,16.17
2023-02-02T11:47:29.368Z,15.58
2023-02-02T11:50:04.710Z,15.78
2023-02-02T11:52:40.530Z,16.02
2023-02-02T11:55:19.586Z,12.53
2023-02-02T11:58:30.538Z,14.10
2023-02-02T12:01:04.265Z,13.40
2023-02-02T12:03:39.238Z,16.17
2023-02-02T12:06:28.125Z,14.10
2023-02-02T12:09:05.515Z,17.35
2023-02-02T12:12:08.343Z,18.10
2023-02-02T12:15:19.040Z,16.42
2023-02-02T12:17:55.599Z,12.47
2023-02-02T12:20:44.831Z,13.53
2023-02-02T12:23:25.201Z,14.80
2023-02-02T12:26:30.015Z,13.75
2023-02-02T12:29:40.724Z,14.98
2023-02-02T12:32:54.964Z,15.55
2023-02-02T12:35:51.798Z,11.93
2023-02-02T12:38:43.840Z,12.98
2023-02-02T12:41:46.894Z,14.55
2023-02-02T12:44:45.628Z,16.52
2023-02-02T12:47:28.828Z,17.37
2023-02-02T12:50:21.221Z,15.80
2023-02-02T12:53:10.531Z,13.25
2023-02-02T12:56:11.618Z,16.62
2023-02-02T12:59:00.867Z,15.20
2023-02-02T13:02:07.328Z,16.48
2023-02-02T13:04:57.607Z,17.40
2023-02-02T13:07:46.824Z,15.98
2023-02-02T13:10:33.477Z,17.80
2023-02-02T13:13:14.521Z,16.73
2023-02-02T13:15:50.606Z,16.62
2023-02-02T13:18:42.834Z,20.80
2023-02-02T13:21:36.442Z,16.57
2023-02-02T13:24:31.669Z,17.42
2023-02-02T13:27:06.061Z,19.12
2023-02-02T13:29:58.801Z,18.15
2023-02-02T13:32:34.831Z,16.20
2023-02-02T13:35:23.197Z,16.00
2023-02-02T13:38:25.702Z,18.30
2023-02-02T13:41:01.434Z,20.68
2023-02-02T13:44:05.377Z,17.85
2023-02-02T13:46:58.548Z,18.60
2023-02-02T13:49:41.110Z,19.50
2023-02-02T13:52:39.775Z,18.48
2023-02-02T13:55:23.065Z,22.58
2023-02-02T13:58:21.604Z,25.68
2023-02-02T14:00:59.959Z,25.57
2023-02-02T14:03:42.933Z,20.45
2023-02-02T14:06:20.594Z,24.43
2023-02-02T14:09:05.354Z,27.60
2023-02-02T14:11:42.332Z,24.90
2023-02-02T14:14:32.484Z,26.82
2023-02-02T14:17:24.857Z,23.52
2023-02-02T14:19:58.783Z,23.67
2023-02-02T14:22:52.532Z,24.23
2023-02-02T14:25:48.931Z,29.07
2023-02-02T14:28:44.399Z,23.52
2023-02-02T14:31:29.830Z,22.27
2023-02-02T14:34:36.548Z,23.10
2023-02-02T14:37:28.274Z,20.10
2023-02-02T14:40:26.680Z,22.27
2023-02-02T14:43:38.713Z,21.35
2023-02-02T14:46:36.689Z,20.75
2023-02-02T14:49:13.727Z,19.80
2023-02-02T14:51:53.595Z,21.27
2023-02-02T14:54:30.722Z,22.30
2023-02-02T14:57:26.013Z,22.17
2023-02-02T15:00:01.186Z,21.50
2023-02-02T15:02:37.071Z,20.95
2023-02-02T15:05:35.610Z,22.55
2023-02-02T15:08:27.817Z,24.32
2023-02-02T15:11:05.539Z,24.70
2023-02-02T15:13:38.357Z,27.05
2023-02-02T15:16:19.838Z,27.42
2023-02-02T15:18:58.428Z,26.42
2023-02-02T15:21:30.886Z,24.92
2023-02-02T15:24:03.751Z,29.37
2023-02-02T15:26:40.753Z,27.62
2023-02-02T15:29:36.305Z,24.23
2023-02-02T15:32:22.302Z,26.73
2023-02-02T15:35:04.451Z,26.62
2023-02-02T15:37:41.918Z,29.55
2023-02-02T15:40:17.870Z,37.08
2023-02-02T15:43:08.763Z,32.17
2023-02-02T15:45:59.487Z,29.55
2023-02-02T15:48:34.790Z,26.50
2023-02-02T15:51:19.811Z,26.42
2023-02-02T15:53:52.636Z,27.15
2023-02-02T15:56:32.023Z,28.87
2023-02-02T15:59:04.639Z,26.42
2023-02-02T16:01:40.429Z,24.37
2023-02-02T16:04:18.067Z,26.23
2023-02-02T16:06:51.066Z,32.45
2023-02-02T16:09:31.309Z,30.80
2023-02-02T16:12:06.068Z,37.42
2023-02-02T16:17:21.754Z,29.00
2023-02-02T16:20:00.097Z,30.95
2023-02-02T19:28:31.220Z,23.75
2023-02-02T19:31:04.720Z,27.25
2023-02-02T19:33:49.857Z,27.20
2023-02-02T19:36:25.433Z,27.00
2023-02-02T19:39:02.059Z,27.82
2023-02-02T19:41:34.971Z,28.83
2023-02-02T19:44:22.143Z,29.48
2023-02-02T19:46:56.220Z,30.45
2023-02-02T19:52:10.690Z,28.57
2023-02-02T19:54:45.454Z,29.15
2023-02-02T19:57:36.262Z,30.70
2023-02-02T20:00:22.515Z,34.80
2023-02-02T20:03:06.665Z,27.90
2023-02-02T20:05:54.823Z,25.92
2023-02-02T20:08:41.317Z,27.82
2023-02-02T20:11:57.452Z,28.83
2023-02-02T20:14:34.710Z,27.27
2023-02-02T20:17:31.182Z,26.12
2023-02-02T20:20:03.756Z,27.30
2023-02-02T20:22:36.372Z,27.65
2023-02-02T20:25:09.460Z,30.72
2023-02-02T20:27:44.039Z,39.00
2023-02-02T20:30:33.008Z,32.40
2023-02-02T20:33:10.499Z,27.55
2023-02-02T20:35:48.971Z,29.23
2023-02-02T20:38:28.556Z,29.45
2023-02-02T20:41:00.971Z,25.48
2023-02-02T20:43:34.935Z,24.98
2023-02-02T20:46:07.441Z,25.68
2023-02-02T20:48:40.229Z,23.57
2023-02-02T20:51:13.316Z,25.43
2023-02-02T20:53:46.191Z,26.05
2023-02-02T20:56:19.660Z,28.32
2023-02-02T20:58:53.008Z,28.27
2023-02-02T21:01:26.455Z,28.77
2023-02-02T21:03:59.661Z,32.78
2023-02-02T21:06:32.302Z,30.90
2023-02-02T21:09:05.867Z,28.87
2023-02-02T21:11:38.994Z,27.58
2023-02-02T21:14:12.250Z,26.77
2023-02-02T21:16:45.089Z,28.75
2023-02-02T21:19:17.889Z,25.85
2023-02-02T21:21:50.449Z,28.07
2023-02-02T21:24:24.080Z,23.00
2023-02-02T21:26:58.000Z,24.77
2023-02-02T21:29:31.623Z,22.32
2023-02-02T21:32:04.513Z,24.60
2023-02-02T21:37:16.849Z,23.12
2023-02-02T21:39:51.632Z,25.50
2023-02-02T21:42:26.136Z,26.20
2023-02-02T21:48:36.412Z,24.05
2023-02-02T21:51:26.999Z,21.82
2023-02-02T21:53:59.503Z,23.25
2023-02-02T21:56:39.935Z,28.02
2023-02-02T21:59:19.123Z,24.87
2023-02-02T22:01:52.943Z,24.23
2023-02-02T22:04:31.912Z,24.27
2023-02-02T22:07:15.976Z,23.52
2023-02-02T22:09:50.559Z,20.80
2023-02-02T22:12:28.780Z,23.67
2023-02-02T22:15:05.898Z,22.45
2023-02-02T22:17:43.556Z,24.55
2023-02-02T22:20:35.971Z,23.02
2023-02-02T22:23:12.087Z,25.27
2023-02-02T22:25:44.661Z,24.70
2023-02-02T22:28:23.728Z,24.25
2023-02-02T22:30:58.926Z,24.32
2023-02-02T22:33:31.454Z,25.60
2023-02-02T22:36:04.469Z,24.90
2023-02-02T22:38:37.072Z,27.00
2023-02-02T22:41:09.788Z,26.62
2023-02-02T22:43:42.171Z,24.00
2023-02-02T22:46:14.532Z,24.40
2023-02-02T22:48:47.122Z,21.82
2023-02-02T22:51:20.314Z,29.02
2023-02-02T22:53:52.863Z,24.20
2023-02-02T22:56:26.296Z,22.10
2023-02-02T22:59:01.098Z,23.27
2023-02-02T23:01:34.654Z,23.38
2023-02-02T23:04:07.139Z,24.85
2023-02-02T23:06:39.557Z,21.70
2023-02-02T23:09:12.570Z,22.07
2023-02-02T23:11:45.819Z,23.27
2023-02-02T23:14:19.282Z,21.62
2023-02-02T23:16:51.854Z,24.67
2023-02-02T23:19:24.398Z,27.73
2023-02-02T23:21:56.860Z,25.68
2023-02-02T23:24:29.280Z,27.60
2023-02-02T23:27:01.621Z,28.47
2023-02-02T23:29:33.953Z,27.15
2023-02-02T23:32:07.273Z,25.88
2023-02-02T23:34:40.239Z,24.25
2023-02-02T23:37:12.614Z,25.12
2023-02-02T23:39:45.324Z,23.00
2023-02-02T23:42:18.033Z,25.80
2023-02-02T23:44:50.775Z,27.87
2023-02-02T23:47:23.426Z,30.60
2023-02-02T23:49:55.882Z,23.77
2023-02-02T23:52:28.364Z,28.02
2023-02-02T23:55:01.955Z,25.32
2023-02-02T23:57:36.194Z,26.33
